Time;durP1;ratioP1;P1;durP2;ratioP2;P2;SDS_P1;SDS_P2;PMS_P1;PMS_P2;Temp;Humidity;BMP_temperature;BMP_pressure;BME280_temperature;BME280_humidity;BME280_pressure;Samples;Min_cycle;Max_cycle;Signal;HPM_P1;HPM_P2
2023/01/24 00:00:50;;;;;;;30.02;26.90;;;3.10;99.90;;;;;;4957405;28;20690;-72
2023/01/24 00:03:16;;;;;;;29.55;26.35;;;3.00;99.90;;;;;;4955225;28;20267;-74
2023/01/24 00:05:44;;;;;;;30.90;27.40;;;3.10;99.90;;;;;;4972042;28;20045;-72
2023/01/24 00:08:15;;;;;;;30.63;27.42;;;3.00;99.90;;;;;;4971721;28;20042;-70
2023/01/24 00:10:41;;;;;;;32.22;28.27;;;3.10;99.90;;;;;;4988392;28;20076;-69
2023/01/24 00:13:11;;;;;;;32.50;29.02;;;3.00;99.90;;;;;;4971601;28;20088;-72
2023/01/24 00:15:36;;;;;;;31.75;28.27;;;3.00;99.90;;;;;;4964781;28;20045;-74
2023/01/24 00:18:02;;;;;;;32.30;28.27;;;3.00;99.90;;;;;;4957252;28;20115;-74
2023/01/24 00:20:28;;;;;;;32.38;28.88;;;3.00;99.90;;;;;;4970284;28;20149;-74
2023/01/24 00:22:54;;;;;;;32.53;28.30;;;3.00;99.90;;;;;;4988388;28;20034;-74
2023/01/24 00:25:20;;;;;;;32.10;27.95;;;3.00;99.90;;;;;;4970470;28;20129;-74
2023/01/24 00:27:46;;;;;;;32.45;27.90;;;2.90;99.90;;;;;;4954535;28;20510;-71
2023/01/24 00:30:11;;;;;;;36.15;29.55;;;3.00;99.90;;;;;;4972607;28;20117;-72
2023/01/24 00:32:37;;;;;;;31.25;27.92;;;3.00;99.90;;;;;;4985591;28;20066;-72
2023/01/24 00:35:03;;;;;;;30.25;26.95;;;3.00;99.90;;;;;;4953939;28;20132;-72
2023/01/24 00:37:29;;;;;;;33.08;28.63;;;3.00;99.90;;;;;;4954124;28;20071;-71
2023/01/24 00:39:55;;;;;;;32.92;29.15;;;3.00;99.90;;;;;;4955459;28;20045;-71
2023/01/24 00:42:20;;;;;;;32.05;28.33;;;3.00;99.90;;;;;;4968287;28;20069;-71
2023/01/24 00:44:46;;;;;;;33.17;29.17;;;3.00;99.90;;;;;;4973444;28;20180;-71
2023/01/24 00:47:12;;;;;;;34.50;28.67;;;3.00;99.90;;;;;;4953256;28;20033;-71
2023/01/24 00:49:38;;;;;;;32.92;28.27;;;3.00;99.90;;;;;;4987986;28;20042;-71
2023/01/24 00:52:07;;;;;;;34.50;29.67;;;3.00;99.90;;;;;;4969820;28;20073;-71
2023/01/24 00:54:32;;;;;;;33.00;28.42;;;3.00;99.90;;;;;;4987688;28;20096;-71
2023/01/24 00:56:59;;;;;;;33.10;28.90;;;3.00;99.90;;;;;;4971475;28;20060;-71
2023/01/24 00:59:24;;;;;;;32.05;28.55;;;3.00;99.90;;;;;;4969850;28;20045;-71
2023/01/24 01:01:50;;;;;;;34.25;29.77;;;3.00;99.90;;;;;;4956700;28;20046;-71
2023/01/24 01:04:16;;;;;;;35.30;30.15;;;2.90;99.90;;;;;;4967285;28;20049;-72
2023/01/24 01:06:46;;;;;;;34.17;30.15;;;3.00;99.90;;;;;;4988809;28;20077;-71
2023/01/24 01:09:11;;;;;;;35.03;30.40;;;2.90;99.90;;;;;;4968745;28;20899;-71
2023/01/24 01:11:41;;;;;;;35.13;29.83;;;3.00;99.90;;;;;;4973243;28;20535;-71
2023/01/24 01:14:08;;;;;;;35.45;30.58;;;3.00;99.90;;;;;;4988059;28;20061;-74
2023/01/24 01:16:37;;;;;;;33.47;29.80;;;3.00;99.90;;;;;;4971271;28;20045;-74
2023/01/24 01:19:05;;;;;;;37.13;30.88;;;3.00;99.90;;;;;;4968232;28;20034;-74
2023/01/24 01:21:31;;;;;;;34.08;30.25;;;3.00;99.90;;;;;;4969136;28;20382;-74
2023/01/24 01:23:57;;;;;;;35.20;31.38;;;2.90;99.90;;;;;;4970972;28;20571;-74
2023/01/24 01:26:23;;;;;;;34.92;29.75;;;3.00;99.90;;;;;;4969988;28;20053;-74
2023/01/24 01:28:49;;;;;;;36.00;30.60;;;2.90;99.90;;;;;;4969252;28;20056;-74
2023/01/24 01:31:16;;;;;;;33.08;29.48;;;2.90;99.90;;;;;;4955884;28;20050;-74
2023/01/24 01:33:46;;;;;;;33.80;29.45;;;3.00;99.90;;;;;;4954700;28;20045;-73
2023/01/24 01:36:12;;;;;;;33.22;29.70;;;2.90;99.90;;;;;;4969425;28;20397;-73
2023/01/24 01:38:38;;;;;;;32.75;29.20;;;3.00;99.90;;;;;;4969896;28;20044;-73
2023/01/24 01:41:05;;;;;;;35.10;31.15;;;3.00;99.90;;;;;;4986309;28;20033;-73
2023/01/24 01:43:31;;;;;;;34.25;28.92;;;2.90;99.90;;;;;;4985737;28;20057;-74
2023/01/24 01:46:23;;;;;;;34.80;31.00;;;2.90;99.90;;;;;;4970158;28;20037;-74
2023/01/24 01:48:56;;;;;;;35.58;30.20;;;2.90;99.90;;;;;;4983304;28;20065;-74
2023/01/24 01:51:25;;;;;;;33.55;29.38;;;2.90;99.90;;;;;;4983356;28;20507;-73
2023/01/24 01:54:04;;;;;;;38.53;31.73;;;2.90;99.90;;;;;;4970725;28;20652;-74
2023/01/24 01:56:36;;;;;;;35.25;30.92;;;3.00;99.90;;;;;;4969267;28;20050;-74
2023/01/24 01:59:11;;;;;;;35.05;30.02;;;2.90;99.90;;;;;;4985453;28;20073;-74
2023/01/24 02:01:38;;;;;;;34.30;30.45;;;3.00;99.90;;;;;;4985242;28;20085;-74
2023/01/24 02:04:10;;;;;;;34.25;30.38;;;2.90;99.90;;;;;;4969891;28;20048;-73
2023/01/24 02:06:51;;;;;;;34.72;30.70;;;3.00;99.90;;;;;;4983594;28;20049;-73
2023/01/24 02:09:22;;;;;;;34.22;30.08;;;2.90;99.90;;;;;;4964073;28;20067;-74
2023/01/24 02:11:48;;;;;;;;;;;3.00;99.90;;;;;;4965150;28;20041;-73
2023/01/24 02:17:03;;;;;;;36.40;29.50;;;2.90;99.90;;;;;;4986130;28;20053;-74
2023/01/24 02:19:32;;;;;;;34.38;29.35;;;2.90;99.90;;;;;;4968247;28;20041;-74
2023/01/24 02:22:13;;;;;;;34.85;29.58;;;2.90;99.90;;;;;;4987600;28;20536;-74
2023/01/24 02:24:48;;;;;;;33.08;29.23;;;3.00;99.90;;;;;;4969381;28;20034;-74
2023/01/24 02:27:13;;;;;;;34.60;30.35;;;2.90;99.90;;;;;;4984740;28;20048;-74
2023/01/24 02:29:39;;;;;;;34.50;30.13;;;2.90;99.90;;;;;;4971642;28;20814;-74
2023/01/24 02:32:07;;;;;;;36.03;30.58;;;2.90;99.90;;;;;;4961946;28;20533;-74
2023/01/24 02:34:33;;;;;;;34.47;30.70;;;3.00;99.90;;;;;;4967467;28;20050;-74
2023/01/24 02:37:01;;;;;;;35.78;30.95;;;2.90;99.90;;;;;;4964107;28;20034;-74
2023/01/24 02:39:30;;;;;;;35.92;32.03;;;3.00;99.90;;;;;;4982017;28;20053;-74
2023/01/24 02:42:10;;;;;;;35.63;30.83;;;2.90;99.90;;;;;;4983268;28;20089;-74
2023/01/24 02:44:42;;;;;;;30.98;27.63;;;2.90;99.90;;;;;;4979603;28;20226;-74
2023/01/24 02:47:08;;;;;;;31.92;27.92;;;2.90;99.90;;;;;;4981419;28;20147;-74
2023/01/24 02:49:37;;;;;;;31.73;27.15;;;3.00;99.90;;;;;;4946492;28;20113;-74
2023/01/24 02:54:48;;;;;;;31.30;27.42;;;3.00;99.90;;;;;;4977528;28;20088;-74
2023/01/24 02:59:57;;;;;;;31.50;27.25;;;3.00;99.90;;;;;;4980694;28;20080;-74
2023/01/24 03:02:23;;;;;;;31.30;27.55;;;3.00;99.90;;;;;;4956274;28;20145;-74
2023/01/24 03:04:49;;;;;;;29.42;26.13;;;2.90;99.90;;;;;;4981953;28;20092;-74
2023/01/24 03:07:18;;;;;;;32.15;27.63;;;3.10;99.90;;;;;;4955145;28;20034;-74
2023/01/24 03:09:46;;;;;;;31.80;27.67;;;2.90;99.90;;;;;;4970128;28;20054;-74
2023/01/24 03:36:53;;;;;;;25.23;22.60;;;3.10;99.90;;;;;;4976286;28;20046;-74
2023/01/24 03:42:03;;;;;;;26.80;24.15;;;3.10;99.90;;;;;;4988629;28;20049;-74
2023/01/24 03:44:32;;;;;;;26.03;23.27;;;3.10;99.90;;;;;;4990794;28;20092;-74
2023/01/24 03:47:01;;;;;;;25.98;23.42;;;3.10;99.90;;;;;;4972991;28;20129;-74
2023/01/24 03:52:29;;;;;;;27.25;24.40;;;3.20;99.90;;;;;;4985019;28;20512;-74
2023/01/24 03:54:56;;;;;;;27.25;24.50;;;3.10;99.90;;;;;;4987760;28;20053;-74
2023/01/24 03:57:22;;;;;;;26.60;23.83;;;3.10;99.90;;;;;;4957585;28;20189;-74
2023/01/24 03:59:48;;;;;;;24.88;22.38;;;3.20;99.90;;;;;;4973950;28;20061;-74
2023/01/24 04:02:15;;;;;;;24.92;22.38;;;3.20;99.90;;;;;;4988829;28;20172;-73
2023/01/24 04:07:27;;;;;;;27.50;24.77;;;3.20;99.90;;;;;;4972145;28;20145;-73
2023/01/24 04:09:52;;;;;;;26.02;23.38;;;3.20;99.90;;;;;;4970082;28;20057;-72
2023/01/24 04:12:18;;;;;;;26.30;23.50;;;3.20;99.90;;;;;;4968834;28;20037;-73
2023/01/24 04:14:44;;;;;;;25.63;23.02;;;3.10;99.90;;;;;;4967994;28;20481;-73
2023/01/24 04:17:10;;;;;;;26.75;24.05;;;3.20;99.90;;;;;;4947109;28;20041;-72
2023/01/24 04:19:36;;;;;;;26.58;23.77;;;3.20;99.90;;;;;;4988361;28;20493;-72
2023/01/24 04:22:01;;;;;;;25.30;22.75;;;3.30;99.90;;;;;;4970626;28;20038;-72
2023/01/24 04:24:27;;;;;;;23.58;21.05;;;3.10;99.90;;;;;;4971601;28;20053;-73
2023/01/24 04:26:53;;;;;;;22.38;20.10;;;3.10;99.90;;;;;;4969775;28;20086;-73
2023/01/24 04:29:20;;;;;;;20.67;18.52;;;3.10;99.90;;;;;;4969242;28;20050;-73
2023/01/24 04:31:46;;;;;;;22.35;20.05;;;3.10;99.90;;;;;;4965114;28;20149;-73
2023/01/24 04:34:11;;;;;;;22.85;20.42;;;3.10;99.90;;;;;;4983118;28;20129;-72
2023/01/24 04:36:37;;;;;;;21.77;19.58;;;3.10;99.90;;;;;;4968274;28;20046;-73
2023/01/24 04:39:03;;;;;;;24.33;21.80;;;3.10;99.90;;;;;;4968285;28;20081;-73
2023/01/24 04:41:29;;;;;;;23.75;21.40;;;3.00;99.90;;;;;;4955503;28;20046;-72
2023/01/24 04:43:55;;;;;;;24.55;22.00;;;3.00;99.90;;;;;;4967119;28;20806;-73
2023/01/24 04:46:20;;;;;;;23.48;20.95;;;3.10;99.90;;;;;;4984581;28;20086;-72
2023/01/24 04:48:46;;;;;;;23.70;21.33;;;3.10;99.90;;;;;;4967780;28;20042;-72
2023/01/24 04:51:12;;;;;;;25.70;22.38;;;3.00;99.90;;;;;;4966724;28;20042;-74
2023/01/24 04:53:41;;;;;;;24.60;22.08;;;3.00;99.90;;;;;;4952828;28;20811;-72
2023/01/24 04:56:11;;;;;;;24.90;22.30;;;3.00;99.90;;;;;;4968660;28;20101;-74
2023/01/24 04:58:37;;;;;;;23.80;21.30;;;3.00;99.90;;;;;;4963808;28;20042;-74
2023/01/24 05:01:03;;;;;;;24.02;21.50;;;3.00;99.90;;;;;;4982897;28;20122;-74
2023/01/24 05:03:28;;;;;;;22.35;19.95;;;3.10;99.90;;;;;;4951082;28;20173;-72
2023/01/24 05:05:57;;;;;;;23.83;21.42;;;2.90;99.90;;;;;;4958977;28;20058;-74
2023/01/24 05:08:23;;;;;;;23.60;21.13;;;3.00;99.90;;;;;;4949703;28;20061;-75
2023/01/24 05:10:49;;;;;;;22.55;20.17;;;3.00;99.90;;;;;;4967325;28;20089;-71
2023/01/24 05:13:15;;;;;;;20.98;18.58;;;3.00;99.90;;;;;;4954052;28;20039;-72
2023/01/24 05:15:49;;;;;;;20.45;18.35;;;3.00;99.90;;;;;;4979405;28;20046;-71
2023/01/24 05:18:15;;;;;;;21.95;19.58;;;3.00;99.90;;;;;;4953056;28;20042;-72
2023/01/24 05:20:41;;;;;;;20.38;18.17;;;3.10;99.90;;;;;;4984830;28;20120;-70
2023/01/24 05:23:07;;;;;;;20.70;18.50;;;3.00;99.90;;;;;;4985684;28;20042;-72
2023/01/24 05:25:32;;;;;;;20.13;18.02;;;3.10;99.90;;;;;;4979316;28;20043;-72
2023/01/24 05:27:58;;;;;;;20.25;18.17;;;3.00;99.90;;;;;;4964816;28;20050;-72
2023/01/24 05:30:24;;;;;;;20.80;18.60;;;3.00;99.90;;;;;;4960027;28;20203;-70
2023/01/24 05:32:50;;;;;;;21.17;19.08;;;3.00;99.90;;;;;;4952328;28;20882;-72
2023/01/24 05:35:16;;;;;;;20.60;18.40;;;3.10;99.90;;;;;;4984752;28;20046;-73
2023/01/24 05:37:41;;;;;;;19.83;17.73;;;3.10;99.90;;;;;;4962585;28;20424;-73
2023/01/24 05:40:08;;;;;;;20.25;18.02;;;3.00;99.90;;;;;;4966765;28;20046;-72
2023/01/24 05:42:34;;;;;;;20.08;17.75;;;3.00;99.90;;;;;;4985089;28;20061;-73
2023/01/24 05:45:00;;;;;;;20.60;18.27;;;3.00;99.90;;;;;;4989768;28;20099;-73
2023/01/24 05:47:26;;;;;;;19.58;17.08;;;3.00;99.90;;;;;;4957716;28;20086;-72
2023/01/24 05:49:52;;;;;;;19.58;16.63;;;3.10;99.90;;;;;;4970817;28;20562;-73
2023/01/24 05:52:21;;;;;;;19.05;17.05;;;3.00;99.90;;;;;;4984353;28;20039;-73
2023/01/24 05:54:48;;;;;;;19.77;17.67;;;3.00;99.90;;;;;;4968950;28;20042;-72
2023/01/24 05:57:15;;;;;;;18.00;16.10;;;3.00;99.90;;;;;;4985431;28;20042;-73
2023/01/24 05:59:41;;;;;;;18.10;16.20;;;2.90;99.90;;;;;;4984406;28;20065;-73
2023/01/24 06:02:07;;;;;;;20.40;16.85;;;2.90;99.90;;;;;;4984361;28;20050;-73
2023/01/24 06:04:33;;;;;;;18.60;16.63;;;2.90;99.90;;;;;;4952134;28;20094;-72
2023/01/24 06:06:58;;;;;;;19.00;17.10;;;2.90;99.90;;;;;;4962395;28;20082;-72
2023/01/24 06:09:24;;;;;;;17.58;15.55;;;2.90;99.90;;;;;;4960023;28;20142;-72
2023/01/24 06:11:50;;;;;;;18.73;16.75;;;2.90;99.90;;;;;;4964647;28;20098;-72
2023/01/24 06:14:16;;;;;;;18.88;16.80;;;3.00;99.90;;;;;;4983614;28;20038;-72
2023/01/24 06:16:46;;;;;;;17.73;15.93;;;2.90;99.90;;;;;;4980552;28;20940;-73
2023/01/24 06:19:13;;;;;;;20.05;17.90;;;2.90;99.90;;;;;;4962254;28;20089;-72
2023/01/24 06:22:03;;;;;;;17.00;15.18;;;2.90;99.90;;;;;;4989670;28;20062;-73
2023/01/24 06:24:29;;;;;;;19.20;17.20;;;2.90;99.90;;;;;;4982982;28;20074;-73
2023/01/24 06:26:55;;;;;;;18.52;16.63;;;2.90;99.90;;;;;;4946773;28;20064;-73
2023/01/24 06:29:22;;;;;;;18.60;16.75;;;2.90;99.90;;;;;;4978539;28;20085;-74
2023/01/24 06:32:06;;;;;;;17.63;15.73;;;3.00;99.90;;;;;;4959709;28;20057;-73
2023/01/24 06:34:47;;;;;;;19.10;16.80;;;3.00;99.90;;;;;;4980270;28;20053;-73
2023/01/24 06:37:47;;;;;;;21.35;17.77;;;3.00;99.90;;;;;;4981260;28;20042;-73
2023/01/24 06:40:16;;;;;;;19.50;17.50;;;3.00;99.90;;;;;;4965127;28;20046;-74
2023/01/24 06:42:42;;;;;;;18.45;16.55;;;2.90;99.90;;;;;;4962841;28;21111;-73
2023/01/24 06:45:08;;;;;;;18.95;16.90;;;2.90;99.90;;;;;;4962157;28;20489;-73
2023/01/24 06:47:35;;;;;;;19.05;16.98;;;2.80;99.90;;;;;;4980876;28;20049;-73
2023/01/24 06:50:01;;;;;;;18.85;16.83;;;2.90;99.90;;;;;;4982025;28;20050;-73
2023/01/24 06:52:26;;;;;;;19.05;16.52;;;2.80;99.90;;;;;;4966119;28;20042;-73
2023/01/24 06:54:52;;;;;;;18.52;16.63;;;2.90;99.90;;;;;;4947683;28;20061;-75
2023/01/24 06:57:18;;;;;;;18.92;16.90;;;2.80;99.90;;;;;;4950702;28;20392;-74
2023/01/24 06:59:44;;;;;;;19.55;17.42;;;2.80;99.90;;;;;;4959333;28;20054;-74
2023/01/24 07:02:10;;;;;;;18.90;16.98;;;2.90;99.90;;;;;;4963742;28;20670;-75
2023/01/24 07:04:36;;;;;;;19.33;17.23;;;2.90;99.90;;;;;;4960530;28;20053;-75
2023/01/24 07:07:03;;;;;;;19.50;17.40;;;2.90;99.90;;;;;;4982052;28;20042;-74
2023/01/24 07:09:28;;;;;;;19.57;17.57;;;2.90;99.90;;;;;;4961762;28;20053;-72
2023/01/24 07:11:57;;;;;;;19.08;17.08;;;2.90;99.90;;;;;;4964982;28;20441;-69
2023/01/24 07:14:23;;;;;;;19.23;17.13;;;2.80;99.90;;;;;;4979601;28;20087;-69
2023/01/24 07:16:50;;;;;;;20.25;18.00;;;2.80;99.90;;;;;;4967604;28;20050;-70
2023/01/24 07:19:22;;;;;;;18.90;16.90;;;2.80;99.90;;;;;;4980632;28;20047;-69
2023/01/24 07:21:48;;;;;;;19.27;17.20;;;2.80;99.90;;;;;;4961404;28;20047;-71
2023/01/24 07:24:18;;;;;;;19.30;17.20;;;2.80;99.90;;;;;;4982410;28;20100;-69
2023/01/24 07:26:44;;;;;;;21.00;18.20;;;2.80;99.90;;;;;;4982404;28;20056;-74
2023/01/24 07:29:11;;;;;;;19.43;17.37;;;2.70;99.90;;;;;;4982521;28;20042;-74
2023/01/24 07:31:37;;;;;;;20.43;18.17;;;2.70;99.90;;;;;;4969111;28;20045;-74
2023/01/24 07:34:03;;;;;;;20.60;18.17;;;2.70;99.90;;;;;;4969120;28;20045;-73
2023/01/24 07:36:29;;;;;;;19.20;17.10;;;2.70;99.90;;;;;;4983483;28;20042;-73
2023/01/24 07:38:56;;;;;;;19.45;17.45;;;2.70;99.90;;;;;;4985363;28;20133;-74
2023/01/24 07:41:22;;;;;;;19.70;17.60;;;2.70;99.90;;;;;;4969048;28;20049;-74
2023/01/24 07:43:48;;;;;;;19.48;17.33;;;2.70;99.90;;;;;;4985606;28;20042;-74
2023/01/24 07:46:14;;;;;;;20.75;18.38;;;2.70;99.90;;;;;;4985355;28;20037;-74
2023/01/24 07:48:43;;;;;;;18.63;16.63;;;2.70;99.90;;;;;;4984938;28;20109;-74
2023/01/24 07:51:09;;;;;;;20.90;18.67;;;2.70;99.90;;;;;;4953784;28;20056;-74
2023/01/24 07:53:38;;;;;;;22.25;19.02;;;2.70;99.90;;;;;;4986676;28;20405;-73
2023/01/24 07:56:05;;;;;;;19.42;17.33;;;2.70;99.90;;;;;;4974512;28;20037;-74
2023/01/24 07:58:31;;;;;;;20.70;17.88;;;2.70;99.90;;;;;;4970186;28;20081;-74
2023/01/24 08:00:57;;;;;;;20.40;18.13;;;2.70;99.90;;;;;;4969530;28;20073;-75
2023/01/24 08:03:23;;;;;;;21.13;18.75;;;2.80;99.90;;;;;;4971276;28;20045;-77
2023/01/24 08:05:50;;;;;;;21.88;18.25;;;2.80;99.90;;;;;;4986506;28;20042;-76
2023/01/24 08:08:15;;;;;;;20.33;18.15;;;2.70;99.90;;;;;;4956373;28;20129;-76
2023/01/24 08:10:41;;;;;;;19.95;17.95;;;2.70;99.90;;;;;;4987082;28;20064;-76
2023/01/24 08:13:07;;;;;;;21.10;17.95;;;2.70;99.90;;;;;;4971583;28;20096;-76
2023/01/24 08:15:33;;;;;;;20.00;17.90;;;2.70;99.90;;;;;;4970666;28;20050;-77
2023/01/24 08:18:02;;;;;;;21.50;18.63;;;2.60;99.90;;;;;;4971568;28;20045;-76
2023/01/24 08:20:29;;;;;;;20.20;18.13;;;2.70;99.90;;;;;;4973009;28;20076;-76
2023/01/24 08:22:57;;;;;;;20.85;18.55;;;2.70;99.90;;;;;;4955058;28;20450;-76
2023/01/24 08:25:26;;;;;;;21.52;18.65;;;2.70;99.90;;;;;;4971091;28;20072;-76
2023/01/24 08:27:52;;;;;;;20.05;17.90;;;2.70;99.90;;;;;;4973191;28;20056;-76
2023/01/24 08:30:19;;;;;;;20.42;18.27;;;2.70;99.90;;;;;;4987480;28;20481;-77
2023/01/24 08:32:45;;;;;;;22.05;18.65;;;2.60;99.90;;;;;;4971400;28;20042;-76
2023/01/24 08:35:11;;;;;;;20.60;18.38;;;2.70;99.90;;;;;;4955503;28;20188;-76
2023/01/24 08:37:37;;;;;;;21.27;19.05;;;2.70;99.90;;;;;;4983837;28;20374;-76
2023/01/24 08:40:03;;;;;;;20.70;18.50;;;2.70;99.90;;;;;;4972311;28;20053;-76
2023/01/24 08:42:29;;;;;;;20.98;18.77;;;2.70;99.90;;;;;;4954648;28;20571;-77
2023/01/24 08:44:55;;;;;;;19.35;17.35;;;2.70;99.90;;;;;;4986814;28;20128;-77
2023/01/24 08:47:21;;;;;;;19.80;17.75;;;2.70;99.90;;;;;;4971840;28;20044;-76
2023/01/24 08:49:47;;;;;;;20.17;18.17;;;2.70;99.90;;;;;;4954703;28;20132;-76
2023/01/24 08:52:12;;;;;;;22.23;19.95;;;2.80;99.90;;;;;;4970257;28;20088;-75
2023/01/24 08:54:39;;;;;;;20.27;18.17;;;2.70;99.90;;;;;;4969839;28;20436;-75
2023/01/24 08:57:07;;;;;;;20.93;18.73;;;2.70;99.90;;;;;;4955810;28;20382;-76
2023/01/24 08:59:33;;;;;;;20.30;18.15;;;2.70;99.90;;;;;;4970600;28;20484;-76
2023/01/24 09:01:59;;;;;;;19.63;17.48;;;2.70;99.90;;;;;;4986464;28;20411;-76
2023/01/24 09:04:26;;;;;;;20.53;18.40;;;2.70;99.90;;;;;;4956208;28;20401;-77
2023/01/24 09:06:52;;;;;;;20.83;18.63;;;2.70;99.90;;;;;;4988358;28;20179;-77
2023/01/24 09:09:18;;;;;;;20.70;18.50;;;2.70;99.90;;;;;;4985042;28;20038;-76
2023/01/24 09:11:44;;;;;;;21.60;19.13;;;2.70;99.90;;;;;;4956586;28;20057;-76
2023/01/24 09:14:10;;;;;;;21.43;19.20;;;2.70;99.90;;;;;;4970048;28;20046;-76
2023/01/24 09:16:36;;;;;;;20.90;18.73;;;2.60;99.90;;;;;;4970217;28;20046;-76
2023/01/24 09:19:01;;;;;;;22.00;19.10;;;2.60;99.90;;;;;;4970346;28;20045;-76
2023/01/24 09:21:27;;;;;;;20.67;18.48;;;2.60;99.90;;;;;;4956147;28;20619;-76
2023/01/24 09:23:54;;;;;;;20.38;18.17;;;2.70;99.90;;;;;;4954979;28;20531;-75
2023/01/24 09:26:20;;;;;;;20.43;18.33;;;2.70;99.90;;;;;;4971906;28;20088;-75
2023/01/24 09:28:49;;;;;;;20.93;18.73;;;2.70;99.90;;;;;;4968601;28;20498;-76
2023/01/24 09:31:15;;;;;;;20.50;18.33;;;2.70;99.90;;;;;;4969291;28;20065;-75
2023/01/24 09:33:41;;;;;;;21.02;18.33;;;2.70;99.90;;;;;;4987331;28;20050;-75
2023/01/24 09:36:07;;;;;;;20.17;18.10;;;2.80;99.90;;;;;;4955303;28;20042;-76
2023/01/24 09:38:37;;;;;;;20.87;18.77;;;2.70;99.90;;;;;;4957184;28;20042;-76
2023/01/24 09:41:06;;;;;;;20.63;18.48;;;2.70;99.90;;;;;;4987274;28;20048;-76
2023/01/24 09:43:47;;;;;;;20.65;18.35;;;2.80;99.90;;;;;;4988344;28;20045;-76
2023/01/24 09:46:39;;;;;;;20.50;18.17;;;2.70;99.90;;;;;;4973050;28;20056;-76
2023/01/24 09:49:26;;;;;;;20.63;18.53;;;2.70;99.90;;;;;;4971996;28;20501;-77
2023/01/24 09:51:53;;;;;;;20.47;17.63;;;2.70;99.90;;;;;;4985628;28;20076;-77
2023/01/24 09:54:52;;;;;;;20.43;18.33;;;2.70;99.90;;;;;;4985249;28;20042;-73
2023/01/24 09:57:26;;;;;;;20.07;17.97;;;2.70;99.90;;;;;;4986936;28;20421;-77
2023/01/24 09:59:57;;;;;;;20.70;18.57;;;2.70;99.90;;;;;;4986586;28;20042;-78
2023/01/24 10:02:27;;;;;;;21.08;18.88;;;2.70;99.90;;;;;;4983637;28;20038;-77
2023/01/24 10:04:53;;;;;;;21.50;19.30;;;2.60;99.90;;;;;;4986877;28;20448;-77
2023/01/24 10:07:45;;;;;;;20.47;18.37;;;2.70;99.90;;;;;;4986595;28;20045;-77
2023/01/24 10:10:43;;;;;;;20.48;18.40;;;2.70;99.90;;;;;;4985934;28;20415;-77
2023/01/24 10:13:28;;;;;;;19.57;17.57;;;2.70;99.90;;;;;;4966932;28;20042;-76
2023/01/24 10:16:00;;;;;;;20.50;18.47;;;2.70;99.90;;;;;;4985379;28;20046;-77
2023/01/24 10:18:45;;;;;;;19.92;17.80;;;2.70;99.90;;;;;;4986037;28;20277;-77
2023/01/24 10:21:19;;;;;;;21.47;19.17;;;2.60;99.90;;;;;;4986791;28;20065;-76
2023/01/24 10:23:54;;;;;;;20.70;18.60;;;2.70;99.90;;;;;;4983696;28;20487;-77
2023/01/24 10:26:41;;;;;;;20.70;18.65;;;2.70;99.90;;;;;;4985123;28;20038;-77
2023/01/24 10:29:24;;;;;;;21.23;19.02;;;2.70;99.90;;;;;;4967216;28;20492;-76
2023/01/24 10:31:54;;;;;;;19.43;17.33;;;2.80;99.90;;;;;;4986207;28;20140;-77
2023/01/24 10:34:27;;;;;;;21.73;19.48;;;2.80;99.90;;;;;;4983176;28;20125;-77
2023/01/24 10:37:01;;;;;;;20.20;18.15;;;2.80;99.90;;;;;;4985272;28;20057;-77
2023/01/24 10:39:27;;;;;;;21.17;19.02;;;2.80;99.90;;;;;;4967692;28;20404;-77
2023/01/24 10:41:54;;;;;;;21.50;19.17;;;2.70;99.90;;;;;;4971020;28;20050;-77
2023/01/24 10:44:29;;;;;;;20.83;18.65;;;2.80;99.90;;;;;;4969487;28;20567;-77
2023/01/24 10:47:43;;;;;;;20.93;18.63;;;2.80;99.90;;;;;;4967795;28;20046;-77
2023/01/24 10:50:15;;;;;;;20.37;18.37;;;2.80;99.90;;;;;;4964563;28;20077;-77
2023/01/24 10:52:42;;;;;;;21.25;19.15;;;2.80;99.90;;;;;;4985760;28;20053;-77
2023/01/24 10:55:34;;;;;;;20.77;18.67;;;2.80;99.90;;;;;;4969749;28;20053;-76
2023/01/24 10:58:15;;;;;;;19.53;17.60;;;2.80;99.90;;;;;;4974159;28;20049;-77
2023/01/24 11:00:41;;;;;;;;;;;2.80;99.90;;;;;;4984194;28;20129;-77
2023/01/24 11:03:23;;;;;;;21.02;18.83;;;2.80;99.90;;;;;;4970731;28;20012;-77
2023/01/24 11:05:51;;;;;;;20.88;18.80;;;2.80;99.90;;;;;;4986073;28;20042;-77
2023/01/24 11:08:19;;;;;;;20.85;18.67;;;2.80;99.90;;;;;;4986166;28;20045;-77
2023/01/24 11:10:45;;;;;;;21.58;19.42;;;2.80;99.90;;;;;;4986588;28;20046;-77
2023/01/24 11:13:26;;;;;;;20.58;18.48;;;2.90;99.90;;;;;;4985199;28;20042;-77
2023/01/24 11:15:55;;;;;;;19.90;17.90;;;2.90;99.90;;;;;;4986074;28;20046;-79
2023/01/24 11:18:25;;;;;;;20.80;18.80;;;2.90;99.90;;;;;;4986025;28;20050;-77
2023/01/24 11:21:12;;;;;;;21.52;19.33;;;2.90;99.90;;;;;;4968977;28;20053;-73
2023/01/24 11:23:39;;;;;;;21.42;19.30;;;2.90;99.90;;;;;;4985265;28;20049;-73
2023/01/24 11:26:18;;;;;;;20.80;18.67;;;2.90;99.90;;;;;;4989117;28;20042;-74
2023/01/24 11:28:44;;;;;;;21.10;19.00;;;2.90;99.90;;;;;;4971903;28;20104;-74
2023/01/24 11:31:30;;;;;;;21.33;19.17;;;2.90;99.90;;;;;;4971705;28;20543;-73
2023/01/24 11:34:28;;;;;;;21.30;19.08;;;2.80;99.90;;;;;;4966642;28;20145;-73
2023/01/24 11:37:18;;;;;;;21.03;18.90;;;2.80;99.90;;;;;;4988054;28;20050;-74
2023/01/24 11:39:56;;;;;;;;;;;2.80;99.90;;;;;;4986773;28;20061;-72
2023/01/24 11:42:43;;;;;;;19.80;17.83;;;2.80;99.90;;;;;;4970488;28;19928;-76
2023/01/24 11:45:22;;;;;;;21.42;19.25;;;2.70;99.90;;;;;;4950904;28;20048;-76
2023/01/24 11:48:08;;;;;;;20.05;18.05;;;2.70;99.90;;;;;;4969789;28;20152;-76
2023/01/24 11:50:57;;;;;;;21.70;19.50;;;2.70;99.90;;;;;;4973460;28;20042;-75
2023/01/24 11:53:49;;;;;;;22.87;20.47;;;2.70;99.90;;;;;;4971543;28;20061;-75
2023/01/24 11:56:46;;;;;;;21.33;19.23;;;2.70;99.90;;;;;;4987263;28;20045;-75
2023/01/24 11:59:44;;;;;;;20.38;18.25;;;2.70;99.90;;;;;;4988047;28;20046;-76
2023/01/24 12:02:33;;;;;;;21.07;18.87;;;2.70;99.90;;;;;;4987018;28;20123;-76
2023/01/24 12:05:31;;;;;;;21.93;19.73;;;2.80;99.90;;;;;;4991845;28;20034;-76
2023/01/24 12:08:12;;;;;;;19.80;17.75;;;2.80;99.90;;;;;;4976832;28;20050;-76
2023/01/24 12:10:44;;;;;;;21.05;18.95;;;2.80;99.90;;;;;;4987753;28;20472;-76
2023/01/24 12:13:22;;;;;;;22.45;20.25;;;2.80;99.90;;;;;;4971942;28;20128;-75
2023/01/24 12:16:21;;;;;;;21.45;19.27;;;2.80;99.90;;;;;;4986025;28;20078;-75
2023/01/24 12:18:47;;;;;;;22.05;19.92;;;2.90;99.90;;;;;;4987046;28;20048;-76
2023/01/24 12:21:13;;;;;;;20.83;18.75;;;2.90;99.90;;;;;;4973256;28;20046;-76
2023/01/24 12:24:00;;;;;;;22.38;20.05;;;2.90;99.90;;;;;;4970629;28;20139;-78
2023/01/24 12:26:30;;;;;;;21.30;19.00;;;2.90;99.90;;;;;;4988641;28;20124;-74
2023/01/24 12:29:02;;;;;;;21.63;19.53;;;3.00;99.90;;;;;;4970756;28;20057;-75
2023/01/24 12:31:51;;;;;;;21.70;19.52;;;2.90;99.90;;;;;;4970052;28;20308;-75
2023/01/24 12:34:51;;;;;;;21.88;19.67;;;2.90;99.90;;;;;;4971129;28;20038;-76
2023/01/24 12:37:46;;;;;;;23.40;21.07;;;2.90;99.90;;;;;;4971723;28;20046;-76
2023/01/24 12:40:12;;;;;;;21.87;19.67;;;2.90;99.90;;;;;;4957479;28;20508;-76
2023/01/24 12:42:38;;;;;;;22.42;20.15;;;2.90;99.90;;;;;;4972308;28;20342;-76
2023/01/24 12:45:11;;;;;;;22.17;19.92;;;2.80;99.90;;;;;;4972401;28;20396;-76
2023/01/24 12:47:47;;;;;;;21.67;19.48;;;2.80;99.90;;;;;;4987867;28;20054;-76
2023/01/24 12:50:35;;;;;;;21.75;19.60;;;2.90;99.90;;;;;;4988381;28;20049;-76
2023/01/24 12:53:21;;;;;;;23.00;20.60;;;2.90;99.90;;;;;;4972999;28;20049;-76
2023/01/24 12:55:59;;;;;;;23.10;20.80;;;2.80;99.90;;;;;;4985897;28;20049;-76
2023/01/24 12:58:37;;;;;;;21.42;19.20;;;2.80;99.90;;;;;;4971745;28;20748;-76
2023/01/24 13:01:22;;;;;;;22.27;19.95;;;2.80;99.90;;;;;;4971337;28;20615;-76
2023/01/24 13:03:56;;;;;;;22.93;20.47;;;2.70;99.90;;;;;;4985955;28;20085;-76
2023/01/24 13:07:01;;;;;;;22.60;20.30;;;2.70;99.90;;;;;;4986576;28;20099;-76
2023/01/24 13:09:41;;;;;;;21.25;19.15;;;2.70;99.90;;;;;;4931050;28;20065;-76
2023/01/24 13:12:16;;;;;;;22.35;20.10;;;2.70;99.90;;;;;;4945628;28;20062;-76
2023/01/24 13:15:19;;;;;;;22.67;20.40;;;2.70;99.90;;;;;;4972067;28;20045;-75
2023/01/24 13:18:00;;;;;;;22.67;20.27;;;2.70;99.90;;;;;;4957885;28;20078;-76
2023/01/24 13:20:51;;;;;;;23.50;21.10;;;2.70;99.90;;;;;;4988004;28;20196;-76
2023/01/24 13:23:40;;;;;;;22.08;19.85;;;2.70;99.90;;;;;;4972116;28;20053;-75
2023/01/24 13:26:37;;;;;;;23.83;21.33;;;2.70;99.90;;;;;;4969470;28;20125;-75
2023/01/24 13:29:35;;;;;;;23.80;21.48;;;2.70;99.90;;;;;;4988243;28;20054;-76
2023/01/24 13:32:06;;;;;;;23.45;20.98;;;2.60;99.90;;;;;;4966128;28;20104;-77
2023/01/24 13:34:36;;;;;;;23.65;21.25;;;2.60;99.90;;;;;;4967672;28;20050;-77
2023/01/24 13:37:03;;;;;;;22.75;20.45;;;2.60;99.90;;;;;;4982409;28;20050;-77
2023/01/24 13:39:35;;;;;;;23.67;21.17;;;2.60;99.90;;;;;;4963006;28;20050;-77